createdAt,value
2023-04-09T00:00:19.355Z,101864.09
2023-04-09T00:03:07.717Z,101862.61
2023-04-09T00:05:41.119Z,101863.57
2023-04-09T00:08:12.949Z,101864.80
2023-04-09T00:10:41.333Z,101863.57
2023-04-09T00:13:09.927Z,101864.73
2023-04-09T00:15:39.131Z,101865.64
2023-04-09T00:18:08.285Z,101865.52
2023-04-09T00:20:37.029Z,101866.55
2023-04-09T00:23:05.612Z,101867.77
2023-04-09T00:25:34.607Z,101866.84
2023-04-09T00:28:03.377Z,101861.94
2023-04-09T00:30:31.994Z,101863.54
2023-04-09T00:33:00.777Z,101866.94
2023-04-09T00:35:29.377Z,101867.63
2023-04-09T00:37:57.661Z,101868.27
2023-04-09T00:40:36.687Z,101863.73
2023-04-09T00:43:05.892Z,101864.19
2023-04-09T00:45:38.395Z,101865.17
2023-04-09T00:48:10.538Z,101865.02
2023-04-09T00:50:39.636Z,101866.73
2023-04-09T00:53:08.025Z,101864.52
2023-04-09T00:55:37.040Z,101862.00
2023-04-09T00:58:05.405Z,101861.35
2023-04-09T01:00:33.892Z,101862.92
2023-04-09T01:03:03.449Z,101863.02
2023-04-09T01:05:47.135Z,101864.86
2023-04-09T01:09:03.208Z,101861.70
2023-04-09T01:11:49.910Z,101861.50
2023-04-09T01:14:45.623Z,101857.26
2023-04-09T01:17:26.825Z,101858.20
2023-04-09T01:20:05.337Z,101854.18
2023-04-09T01:22:42.693Z,101856.44
2023-04-09T01:25:54.993Z,101849.58
2023-04-09T01:28:32.577Z,101851.02
2023-04-09T01:31:27.986Z,101853.73
2023-04-09T01:34:01.474Z,101854.84
2023-04-09T01:36:32.434Z,101856.40
2023-04-09T01:39:02.502Z,101859.75
2023-04-09T01:41:33.390Z,101857.55
2023-04-09T01:44:04.224Z,101855.66
2023-04-09T01:46:35.097Z,101855.52
2023-04-09T01:49:05.158Z,101853.85
2023-04-09T01:51:34.138Z,101855.36
2023-04-09T01:54:02.581Z,101853.52
2023-04-09T01:56:44.978Z,101850.68
2023-04-09T01:59:14.265Z,101848.52
2023-04-09T02:01:48.414Z,101846.48
2023-04-09T02:04:29.881Z,101846.23
2023-04-09T02:07:01.642Z,101844.14
2023-04-09T02:09:32.089Z,101846.69
2023-04-09T02:12:04.039Z,101847.11
2023-04-09T02:14:37.890Z,101848.62
2023-04-09T02:17:06.843Z,101848.91
2023-04-09T02:19:45.279Z,101852.33
2023-04-09T02:22:17.436Z,101851.67
2023-04-09T02:24:46.939Z,101850.13
2023-04-09T02:27:15.226Z,101850.46
2023-04-09T02:29:43.817Z,101851.60
2023-04-09T02:32:13.657Z,101853.61
2023-04-09T02:34:42.633Z,101853.71
2023-04-09T02:37:11.025Z,101855.73
2023-04-09T02:39:39.616Z,101858.19
2023-04-09T02:42:08.193Z,101858.46
2023-04-09T02:44:36.691Z,101860.44
2023-04-09T02:47:06.088Z,101858.91
2023-04-09T02:49:35.090Z,101858.27
2023-04-09T02:52:03.475Z,101859.08
2023-04-09T02:54:34.731Z,101862.14
2023-04-09T02:57:03.413Z,101863.08
2023-04-09T02:59:33.131Z,101864.89
2023-04-09T03:02:02.438Z,101861.58
2023-04-09T03:04:30.936Z,101862.69
2023-04-09T03:06:59.203Z,101864.96
2023-04-09T03:09:27.594Z,101864.21
2023-04-09T03:11:57.533Z,101867.37
2023-04-09T03:14:26.814Z,101867.55
2023-04-09T03:16:56.226Z,101870.14
2023-04-09T03:19:24.808Z,101870.80
2023-04-09T03:21:53.297Z,101869.25
2023-04-09T03:24:23.628Z,101870.10
2023-04-09T03:26:52.627Z,101872.32
2023-04-09T03:29:21.215Z,101870.25
2023-04-09T03:31:49.835Z,101872.45
2023-04-09T03:34:18.393Z,101876.23
2023-04-09T03:36:52.609Z,101876.73
2023-04-09T03:39:30.988Z,101878.36
2023-04-09T03:41:59.725Z,101881.13
2023-04-09T03:44:30.863Z,101882.61
2023-04-09T03:47:08.160Z,101886.59
2023-04-09T03:49:37.153Z,101887.19
2023-04-09T03:52:27.131Z,101892.35
2023-04-09T03:55:08.002Z,101893.08
2023-04-09T03:57:37.400Z,101894.73
2023-04-09T04:00:09.313Z,101896.33
2023-04-09T04:02:52.448Z,101900.36
2023-04-09T04:05:31.519Z,101902.61
2023-04-09T04:08:00.730Z,101900.19
2023-04-09T04:10:29.823Z,101905.16
2023-04-09T04:12:58.452Z,101904.30
2023-04-09T04:15:43.377Z,101904.55
2023-04-09T04:18:12.778Z,101906.64
2023-04-09T04:20:54.671Z,101908.13
2023-04-09T04:23:32.062Z,101909.77
2023-04-09T04:26:11.061Z,101909.45
2023-04-09T04:28:40.537Z,101909.09
2023-04-09T04:31:13.002Z,101913.20
2023-04-09T04:33:43.019Z,101912.14
2023-04-09T04:36:16.599Z,101911.42
2023-04-09T04:38:50.197Z,101912.70
2023-04-09T04:41:24.939Z,101914.09
2023-04-09T04:43:58.535Z,101919.40
2023-04-09T04:46:27.739Z,101920.32
2023-04-09T04:48:56.442Z,101921.08
2023-04-09T04:51:24.725Z,101922.49
2023-04-09T04:54:06.517Z,101919.42
2023-04-09T04:56:34.890Z,101921.04
2023-04-09T04:59:07.993Z,101923.70
2023-04-09T05:01:48.672Z,101923.16
2023-04-09T05:04:17.437Z,101927.80
2023-04-09T05:06:46.337Z,101926.52
2023-04-09T05:09:19.493Z,101927.77
2023-04-09T05:11:59.475Z,101928.31
2023-04-09T05:14:30.727Z,101931.14
2023-04-09T05:16:59.718Z,101934.25
2023-04-09T05:19:32.814Z,101934.85
2023-04-09T05:22:03.557Z,101935.27
2023-04-09T05:24:32.143Z,101934.79
2023-04-09T05:27:01.547Z,101936.05
2023-04-09T05:29:30.041Z,101933.36
2023-04-09T05:31:58.321Z,101934.92
2023-04-09T05:34:31.207Z,101941.08
2023-04-09T05:37:00.000Z,101940.46
2023-04-09T05:39:28.693Z,101942.63
2023-04-09T05:41:59.637Z,101941.11
2023-04-09T05:44:28.254Z,101939.58
2023-04-09T05:47:03.678Z,101940.66
2023-04-09T05:49:37.786Z,101943.27
2023-04-09T05:52:11.292Z,101944.69
2023-04-09T05:54:39.781Z,101939.63
2023-04-09T05:57:09.286Z,101940.15
2023-04-09T05:59:39.520Z,101941.63
2023-04-09T06:02:08.252Z,101945.62
2023-04-09T06:04:36.753Z,101943.84
2023-04-09T06:07:05.175Z,101945.27
2023-04-09T06:09:33.766Z,101947.61
2023-04-09T06:12:04.303Z,101943.77
2023-04-09T06:14:33.352Z,101948.89
2023-04-09T06:17:01.991Z,101947.55
2023-04-09T06:19:30.579Z,101949.63
2023-04-09T06:21:58.974Z,101950.35
2023-04-09T06:24:27.345Z,101948.48
2023-04-09T06:26:55.736Z,101949.92
2023-04-09T06:29:24.443Z,101955.44
2023-04-09T06:31:53.017Z,101952.80
2023-04-09T06:34:21.509Z,101955.91
2023-04-09T06:36:49.989Z,101958.15
2023-04-09T06:39:18.472Z,101955.86
2023-04-09T06:41:46.759Z,101954.26
2023-04-09T06:44:38.178Z,101953.15
2023-04-09T06:47:09.330Z,101955.86
2023-04-09T06:49:38.412Z,101947.80
2023-04-09T06:52:07.626Z,101942.82
2023-04-09T06:54:36.102Z,101949.56
2023-04-09T06:57:04.391Z,101947.38
2023-04-09T06:59:33.997Z,101945.40
2023-04-09T07:02:02.584Z,101940.93
2023-04-09T07:04:31.889Z,101941.20
2023-04-09T07:07:00.482Z,101945.40
2023-04-09T07:09:28.863Z,101944.00
2023-04-09T07:11:57.148Z,101943.14
2023-04-09T07:14:25.634Z,101941.79
2023-04-09T07:16:54.427Z,101940.48
2023-04-09T07:19:22.720Z,101940.02
2023-04-09T07:21:51.649Z,101940.40
2023-04-09T07:24:19.990Z,101938.83
2023-04-09T07:26:49.972Z,101942.16
2023-04-09T07:29:20.952Z,101943.28
2023-04-09T07:31:49.612Z,101942.79
2023-04-09T07:34:18.133Z,101945.58
2023-04-09T07:36:46.616Z,101944.13
2023-04-09T07:39:15.207Z,101941.45
2023-04-09T07:41:43.600Z,101945.02
2023-04-09T07:44:12.487Z,101946.09
2023-04-09T07:46:41.736Z,101947.41
2023-04-09T07:49:11.178Z,101950.56
2023-04-09T07:51:39.797Z,101952.21
2023-04-09T07:54:09.099Z,101954.45
2023-04-09T07:56:38.614Z,101956.57
2023-04-09T07:59:07.093Z,101956.95
2023-04-09T08:01:38.129Z,101963.17
2023-04-09T08:04:07.220Z,101960.59
2023-04-09T08:06:36.649Z,101965.17
2023-04-09T08:09:05.442Z,101959.20
2023-04-09T08:11:34.347Z,101958.70
2023-04-09T08:14:03.345Z,101955.52
2023-04-09T08:16:31.847Z,101954.35
2023-04-09T08:19:00.523Z,101952.23
2023-04-09T08:21:29.414Z,101958.13
2023-04-09T08:24:01.438Z,101957.66
2023-04-09T08:26:29.868Z,101956.04
2023-04-09T08:28:58.356Z,101953.61
2023-04-09T08:31:27.657Z,101949.70
2023-04-09T08:33:56.558Z,101950.55
2023-04-09T08:36:24.986Z,101944.49
2023-04-09T08:38:56.271Z,101943.29
2023-04-09T08:41:26.802Z,101945.80
2023-04-09T08:43:59.291Z,101946.82
2023-04-09T08:46:28.919Z,101940.90
2023-04-09T08:48:57.511Z,101942.39
2023-04-09T08:51:25.994Z,101940.35
2023-04-09T08:54:00.786Z,101936.13
2023-04-09T08:56:32.573Z,101932.70
2023-04-09T08:59:00.869Z,101930.23
2023-04-09T09:01:31.542Z,101928.53
2023-04-09T09:04:03.136Z,101926.52
2023-04-09T09:06:36.554Z,101923.44
2023-04-09T09:09:05.144Z,101922.96
2023-04-09T09:11:35.488Z,101920.19
2023-04-09T09:14:12.062Z,101917.30
2023-04-09T09:17:03.951Z,101915.58
2023-04-09T09:19:34.059Z,101914.52
2023-04-09T09:22:04.402Z,101916.48
2023-04-09T09:24:34.243Z,101911.24
2023-04-09T09:27:03.150Z,101912.96
2023-04-09T09:29:32.029Z,101910.55
2023-04-09T09:32:00.925Z,101904.70
2023-04-09T09:34:29.313Z,101898.08
2023-04-09T09:36:57.797Z,101893.03
2023-04-09T09:39:44.301Z,101894.54
2023-04-09T09:42:12.788Z,101896.65
2023-04-09T09:44:41.785Z,101892.73
2023-04-09T09:47:13.540Z,101894.55
2023-04-09T09:49:42.032Z,101894.73
2023-04-09T09:52:11.640Z,101890.66
2023-04-09T09:54:47.896Z,101891.27
2023-04-09T09:57:19.275Z,101892.98
2023-04-09T10:00:02.271Z,101893.87
2023-04-09T10:02:57.401Z,101891.44
2023-04-09T10:05:28.008Z,101894.93
2023-04-09T10:08:00.586Z,101890.18
2023-04-09T10:10:31.340Z,101886.42
2023-04-09T10:13:00.016Z,101882.97
2023-04-09T10:15:30.127Z,101887.16
2023-04-09T10:17:58.488Z,101882.30
2023-04-09T10:20:33.242Z,101880.30
2023-04-09T10:23:06.472Z,101876.48
2023-04-09T10:25:34.647Z,101872.53
2023-04-09T10:28:03.479Z,101872.56
2023-04-09T10:30:33.651Z,101873.51
2023-04-09T10:33:16.835Z,101868.88
2023-04-09T10:35:48.020Z,101867.51
2023-04-09T10:38:16.526Z,101866.83
2023-04-09T10:40:52.123Z,101863.88
2023-04-09T10:43:22.348Z,101862.40
2023-04-09T10:45:54.593Z,101856.91
2023-04-09T10:48:26.280Z,101855.81
2023-04-09T10:50:55.833Z,101851.42
2023-04-09T10:53:27.794Z,101840.74
2023-04-09T10:55:56.493Z,101839.02
2023-04-09T10:58:24.767Z,101835.09
2023-04-09T11:00:54.278Z,101833.14
2023-04-09T11:03:25.438Z,101831.40
2023-04-09T11:06:10.758Z,101830.90
2023-04-09T11:08:39.358Z,101828.72
2023-04-09T11:11:07.674Z,101826.48
2023-04-09T11:13:36.676Z,101823.21
2023-04-09T11:16:07.308Z,101822.28
2023-04-09T11:18:37.232Z,101822.05
2023-04-09T11:21:06.495Z,101815.90
2023-04-09T11:23:35.751Z,101815.40
2023-04-09T11:26:03.966Z,101815.61
2023-04-09T11:28:32.209Z,101811.53
2023-04-09T11:31:00.916Z,101809.70
2023-04-09T11:33:34.353Z,101809.79
2023-04-09T11:36:06.534Z,101812.08
2023-04-09T11:38:38.521Z,101811.25
2023-04-09T11:41:06.903Z,101809.27
2023-04-09T11:43:36.828Z,101810.16
2023-04-09T11:46:08.278Z,101808.25
2023-04-09T11:48:37.080Z,101804.05
2023-04-09T11:51:06.696Z,101806.08
2023-04-09T11:53:37.632Z,101805.56
2023-04-09T11:56:06.013Z,101802.02
2023-04-09T11:58:34.231Z,101797.18
2023-04-09T12:01:02.483Z,101796.78
2023-04-09T12:03:36.844Z,101799.16
2023-04-09T12:06:07.121Z,101795.66
2023-04-09T12:08:36.478Z,101789.45
2023-04-09T12:11:12.995Z,101788.98
2023-04-09T12:13:44.782Z,101785.80
2023-04-09T12:16:14.447Z,101784.73
2023-04-09T12:18:43.168Z,101782.06
2023-04-09T12:21:11.656Z,101778.91
2023-04-09T12:23:39.873Z,101773.91
2023-04-09T12:26:08.332Z,101773.25
2023-04-09T12:28:37.222Z,101769.52
2023-04-09T12:31:06.218Z,101771.36
2023-04-09T12:33:34.603Z,101767.70
2023-04-09T12:36:02.925Z,101763.98
2023-04-09T12:38:31.489Z,101761.40
2023-04-09T12:40:59.857Z,101761.71
2023-04-09T12:43:28.358Z,101759.54
2023-04-09T12:45:58.047Z,101754.26
2023-04-09T12:48:26.959Z,101752.83
2023-04-09T12:50:55.546Z,101748.81
2023-04-09T12:53:23.926Z,101747.31
2023-04-09T12:55:52.444Z,101742.13
2023-04-09T12:58:21.001Z,101737.74
2023-04-09T13:00:50.021Z,101730.84
2023-04-09T13:03:18.335Z,101724.92
2023-04-09T13:05:47.483Z,101722.77
2023-04-09T13:08:16.487Z,101720.52
2023-04-09T13:10:44.869Z,101718.25
2023-04-09T13:13:13.566Z,101714.19
2023-04-09T13:15:46.486Z,101712.09
2023-04-09T13:18:14.938Z,101711.39
2023-04-09T13:20:43.129Z,101708.19
2023-04-09T13:23:11.405Z,101707.42
2023-04-09T13:25:39.821Z,101706.48
2023-04-09T13:28:08.066Z,101705.98
2023-04-09T13:30:36.690Z,101712.20
2023-04-09T13:33:05.127Z,101709.64
2023-04-09T13:35:33.865Z,101711.54
2023-04-09T13:38:02.323Z,101709.38
2023-04-09T13:40:30.783Z,101703.59
2023-04-09T13:42:58.988Z,101702.38
2023-04-09T13:45:28.092Z,101702.42
2023-04-09T13:47:56.931Z,101699.77
2023-04-09T13:50:25.574Z,101699.39
2023-04-09T13:52:54.269Z,101694.38
2023-04-09T13:55:22.755Z,101693.94
2023-04-09T13:57:51.345Z,101688.81
2023-04-09T14:00:20.110Z,101687.15
2023-04-09T14:02:48.448Z,101688.30
2023-04-09T14:05:17.158Z,101688.15
2023-04-09T14:07:45.288Z,101684.77
2023-04-09T14:10:13.779Z,101681.58
2023-04-09T14:12:42.588Z,101678.97
2023-04-09T14:15:11.357Z,101673.42
2023-04-09T14:17:40.022Z,101668.90
2023-04-09T14:20:08.963Z,101667.56
2023-04-09T14:22:37.231Z,101668.73
2023-04-09T14:25:06.817Z,101671.19
2023-04-09T14:27:35.028Z,101674.40
2023-04-09T14:30:04.420Z,101670.80
2023-04-09T14:32:32.762Z,101669.20
2023-04-09T14:35:01.118Z,101668.21
2023-04-09T14:37:29.583Z,101665.38
2023-04-09T14:39:57.975Z,101663.16
2023-04-09T14:42:26.460Z,101660.53
2023-04-09T14:44:54.944Z,101659.27
2023-04-09T14:47:23.744Z,101652.54
2023-04-09T14:49:52.022Z,101655.48
2023-04-09T14:52:21.020Z,101650.73
2023-04-09T14:54:49.403Z,101648.29
2023-04-09T14:57:17.895Z,101649.55
2023-04-09T14:59:46.380Z,101644.98
2023-04-09T15:02:14.992Z,101644.60
2023-04-09T15:04:43.525Z,101639.05
2023-04-09T15:07:11.945Z,101641.72
2023-04-09T15:09:40.123Z,101639.30
2023-04-09T15:12:09.835Z,101635.80
2023-04-09T15:14:38.224Z,101637.89
2023-04-09T15:17:06.607Z,101633.06
2023-04-09T15:19:35.608Z,101634.83
2023-04-09T15:22:04.193Z,101632.05
2023-04-09T15:24:32.682Z,101632.61
2023-04-09T15:27:01.737Z,101631.52
2023-04-09T15:29:29.962Z,101625.20
2023-04-09T15:31:58.391Z,101627.61
2023-04-09T15:34:26.746Z,101623.27
2023-04-09T15:36:55.233Z,101619.72
2023-04-09T15:39:24.823Z,101620.47
2023-04-09T15:41:53.214Z,101621.77
2023-04-09T15:44:21.694Z,101618.48
2023-04-09T15:46:51.130Z,101619.63
2023-04-09T15:49:20.194Z,101616.50
2023-04-09T15:51:48.804Z,101614.95
2023-04-09T15:54:17.384Z,101616.85
2023-04-09T15:56:45.970Z,101612.67
2023-04-09T15:59:14.270Z,101614.66
2023-04-09T16:01:42.580Z,101617.41
2023-04-09T16:04:11.355Z,101613.70
2023-04-09T16:06:39.720Z,101613.55
2023-04-09T16:09:08.121Z,101614.10
2023-04-09T16:11:37.619Z,101614.75
2023-04-09T16:14:06.010Z,101615.17
2023-04-09T16:16:34.737Z,101610.17
2023-04-09T16:19:03.183Z,101613.83
2023-04-09T16:21:32.305Z,101610.95
2023-04-09T16:24:01.081Z,101607.85
2023-04-09T16:26:29.667Z,101611.17
2023-04-09T16:29:03.158Z,101611.95
2023-04-09T16:31:31.558Z,101612.38
2023-04-09T16:33:59.930Z,101613.40
2023-04-09T16:36:28.621Z,101618.69
2023-04-09T16:38:57.880Z,101619.98
2023-04-09T16:41:26.529Z,101622.02
2023-04-09T16:43:55.375Z,101625.92
2023-04-09T16:46:24.334Z,101626.85
2023-04-09T16:48:53.111Z,101625.56
2023-04-09T16:51:21.992Z,101624.27
2023-04-09T16:53:50.418Z,101627.58
2023-04-09T16:56:18.869Z,101629.98
2023-04-09T16:58:47.364Z,101629.25
2023-04-09T17:01:15.958Z,101635.13
2023-04-09T17:03:44.571Z,101639.35
2023-04-09T17:06:13.425Z,101643.67
2023-04-09T17:08:42.329Z,101641.91
2023-04-09T17:11:15.562Z,101645.00
2023-04-09T17:13:45.025Z,101643.82
2023-04-09T17:16:14.430Z,101648.84
2023-04-09T17:18:42.936Z,101650.44
2023-04-09T17:21:12.650Z,101655.59
2023-04-09T17:23:41.230Z,101654.41
2023-04-09T17:26:09.735Z,101655.00
2023-04-09T17:28:38.000Z,101658.14
2023-04-09T17:31:13.312Z,101659.91
2023-04-09T17:33:44.690Z,101659.34
2023-04-09T17:36:13.017Z,101664.48
2023-04-09T17:38:41.363Z,101675.03
2023-04-09T17:41:09.743Z,101675.95
2023-04-09T17:43:38.228Z,101684.53
2023-04-09T17:46:10.291Z,101680.91
2023-04-09T17:48:39.714Z,101682.92
2023-04-09T17:51:08.748Z,101683.31
2023-04-09T17:53:37.091Z,101690.02
2023-04-09T17:56:06.172Z,101691.10
2023-04-09T17:58:34.690Z,101692.49
2023-04-09T18:01:07.598Z,101699.44
2023-04-09T18:03:36.413Z,101706.40
2023-04-09T18:06:05.134Z,101705.09
2023-04-09T18:08:35.893Z,101707.05
2023-04-09T18:11:12.700Z,101704.42
2023-04-09T18:13:42.277Z,101705.42
2023-04-09T18:16:12.418Z,101711.64
2023-04-09T18:18:41.503Z,101714.20
2023-04-09T18:21:09.989Z,101713.21
2023-04-09T18:23:40.545Z,101719.56
2023-04-09T18:26:09.136Z,101715.70
2023-04-09T18:28:37.756Z,101718.59
2023-04-09T18:31:06.572Z,101718.98
2023-04-09T18:33:37.234Z,101722.44
2023-04-09T18:36:06.403Z,101720.51
2023-04-09T18:38:35.592Z,101720.73
2023-04-09T18:41:04.136Z,101721.77
2023-04-09T18:43:32.508Z,101718.59
2023-04-09T18:46:01.561Z,101719.55
2023-04-09T18:48:30.006Z,101711.76
2023-04-09T18:50:59.301Z,101711.92
2023-04-09T18:53:27.896Z,101707.41
2023-04-09T18:55:56.689Z,101706.00
2023-04-09T18:58:29.068Z,101704.54
2023-04-09T19:00:57.563Z,101708.23
2023-04-09T19:03:27.897Z,101705.58
2023-04-09T19:06:00.403Z,101701.39
2023-04-09T19:08:32.534Z,101707.48
2023-04-09T19:11:00.925Z,101704.39
2023-04-09T19:13:29.401Z,101705.60
2023-04-09T19:15:58.574Z,101704.55
2023-04-09T19:18:27.398Z,101705.96
2023-04-09T19:20:56.295Z,101706.36
2023-04-09T19:23:24.989Z,101702.67
2023-04-09T19:25:56.235Z,101705.76
2023-04-09T19:28:25.132Z,101706.83
2023-04-09T19:30:53.930Z,101705.39
2023-04-09T19:33:23.436Z,101704.44
2023-04-09T19:35:54.200Z,101699.66
2023-04-09T19:38:22.672Z,101697.44
2023-04-09T19:40:51.431Z,101701.52
2023-04-09T19:43:19.738Z,101703.77
2023-04-09T19:45:48.525Z,101703.27
2023-04-09T19:48:19.982Z,101703.85
2023-04-09T19:50:49.232Z,101707.62
2023-04-09T19:53:18.692Z,101710.05
2023-04-09T19:55:46.999Z,101710.52
2023-04-09T19:58:15.776Z,101710.05
2023-04-09T20:00:44.371Z,101712.48
2023-04-09T20:03:13.343Z,101710.16
2023-04-09T20:05:41.847Z,101711.35
2023-04-09T20:08:14.343Z,101710.35
2023-04-09T20:10:46.592Z,101710.79
2023-04-09T20:13:15.078Z,101707.13
2023-04-09T20:15:44.385Z,101707.35
2023-04-09T20:18:12.992Z,101705.75
2023-04-09T20:20:41.775Z,101705.53
2023-04-09T20:23:10.158Z,101704.31
2023-04-09T20:25:38.638Z,101704.37
2023-04-09T20:28:09.992Z,101702.98
2023-04-09T20:30:38.378Z,101704.23
2023-04-09T20:33:06.929Z,101702.59
2023-04-09T20:35:36.547Z,101700.67
2023-04-09T20:38:06.298Z,101700.92
2023-04-09T20:40:37.749Z,101700.82
2023-04-09T20:43:06.753Z,101698.69
2023-04-09T20:45:35.687Z,101699.61
2023-04-09T20:48:04.142Z,101696.03
2023-04-09T20:50:32.625Z,101694.05
2023-04-09T20:53:01.223Z,101690.91
2023-04-09T20:55:29.999Z,101692.27
2023-04-09T20:57:58.689Z,101697.65
2023-04-09T21:00:27.694Z,101694.77
2023-04-09T21:02:56.385Z,101695.41
2023-04-09T21:05:24.861Z,101692.20
2023-04-09T21:07:53.345Z,101696.86
2023-04-09T21:10:21.871Z,101696.31
2023-04-09T21:12:51.001Z,101694.98
2023-04-09T21:15:19.734Z,101694.59
2023-04-09T21:17:48.433Z,101697.09
2023-04-09T21:20:17.836Z,101697.52
2023-04-09T21:22:46.437Z,101695.73
2023-04-09T21:25:15.643Z,101696.45
2023-04-09T21:27:44.227Z,101698.33
2023-04-09T21:30:12.812Z,101695.83
2023-04-09T21:32:41.238Z,101697.38
2023-04-09T21:35:09.605Z,101691.39
2023-04-09T21:37:38.583Z,101693.98
2023-04-09T21:40:08.007Z,101691.73
2023-04-09T21:42:36.378Z,101691.67
2023-04-09T21:45:05.623Z,101692.96
2023-04-09T21:47:34.391Z,101689.57
2023-04-09T21:50:04.257Z,101686.35
2023-04-09T21:52:33.089Z,101687.81
2023-04-09T21:55:01.678Z,101684.55
2023-04-09T21:57:29.958Z,101684.89
2023-04-09T21:59:59.058Z,101685.35
2023-04-09T22:02:28.348Z,101685.00
2023-04-09T22:04:59.394Z,101686.66
2023-04-09T22:07:27.998Z,101686.60
2023-04-09T22:09:57.718Z,101687.48
2023-04-09T22:12:26.813Z,101688.23
2023-04-09T22:14:55.715Z,101690.89
2023-04-09T22:17:24.021Z,101692.93
2023-04-09T22:19:52.992Z,101693.54
2023-04-09T22:22:21.887Z,101688.59
2023-04-09T22:24:50.168Z,101686.45
2023-04-09T22:27:18.483Z,101685.09
2023-04-09T22:29:47.036Z,101682.80
2023-04-09T22:32:15.426Z,101684.45
2023-04-09T22:34:44.014Z,101686.58
2023-04-09T22:37:12.620Z,101682.91
2023-04-09T22:39:41.396Z,101681.56
2023-04-09T22:42:10.807Z,101681.09
2023-04-09T22:44:40.170Z,101681.04
2023-04-09T22:47:08.698Z,101679.16
2023-04-09T22:49:37.082Z,101681.29
2023-04-09T22:52:06.092Z,101679.14
2023-04-09T22:54:34.573Z,101677.50
2023-04-09T22:57:03.159Z,101674.19
2023-04-09T22:59:39.952Z,101674.52
2023-04-09T23:02:09.442Z,101674.43
2023-04-09T23:04:39.086Z,101671.05
2023-04-09T23:07:10.914Z,101669.83
2023-04-09T23:09:39.101Z,101667.39
2023-04-09T23:12:07.887Z,101670.45
2023-04-09T23:14:36.582Z,101665.48
2023-04-09T23:17:04.963Z,101665.52
2023-04-09T23:19:33.861Z,101662.54
2023-04-09T23:22:02.551Z,101656.84
2023-04-09T23:24:31.037Z,101654.42
2023-04-09T23:26:59.867Z,101655.05
2023-04-09T23:29:28.211Z,101652.71
2023-04-09T23:31:56.741Z,101654.77
2023-04-09T23:34:25.593Z,101657.41
2023-04-09T23:36:53.988Z,101658.04
2023-04-09T23:39:22.572Z,101656.52
2023-04-09T23:41:51.377Z,101658.73
2023-04-09T23:44:19.964Z,101658.84
2023-04-09T23:46:48.598Z,101653.61
2023-04-09T23:49:17.135Z,101648.52
2023-04-09T23:51:45.619Z,101650.96
2023-04-09T23:54:13.886Z,101648.69
2023-04-09T23:56:42.490Z,101650.48
2023-04-09T23:59:11.354Z,101651.84
